Moody, AL (35004)

4:23 AM CST on February 28, 2017 (GMT -0600)
Moody | | Change Station
Active Advisory: Dense Fog Advisory

Elev 738 ft 33.59 °N, 86.48 °W | Updated 23 seconds ago

Overcast
Overcast
53.8 °F
Feels Like 53.8 °F
N
1.0
Wind Variable Wind from East
Gusts 7.0 mph

Today
High -- | Low -- °F
--% Chance of Precip.
Yesterday
High -- | Low -- °F
Precip. -- in
Pressure 30.23 in
Visibility 10.0 miles
Clouds Overcast 400 ft
Dew Point 53 °F
Humidity 98%
Rainfall 0.00 in
Snow Depth Not available.
6:15 AM 5:42 PM
Waxing Crescent, 4% visible
METAR KBHM 280953Z VRB03KT 10SM OVC004 13/13 A3024 RMK AO2 SLP236 T01330133
Pressure 30.23 in
Visibility 10.0 miles
Clouds Overcast 400 ft
Dew Point 53 °F
Humidity 98%
Rainfall 0.00 in
Snow Depth Not available.
6:15 AM 5:42 PM
Waxing Crescent, 4% visible
METAR KBHM 280953Z VRB03KT 10SM OVC004 13/13 A3024 RMK AO2 SLP236 T01330133

Get Your Daily Forecast Email!

Thanks for signing up!

Be on the lookout for a verification email in your inbox.

You'll start receiving the daily forecast at 8 AM.

×

10-Day Weather Forecast

Almanac

Astronomy

Feb. 28, 2017 Rise Set
Actual Time
Civil Twilight
Nautical Twilight
Astronomical Twilight
Moon
Length of Visible Light
Length of Day
Tomorrow will be .
, % of the Moon is Illuminated

Today's Extremes

State Highs State Lows

Community

WunderPhotos

Upload Photos

1,962,540 photos uploaded!

WunderBlog® & News

Nearby

Air Quality

  Air Quality AQ Index Pollutant
Not available.

Snow Depth

Station Depth Elevation

Earthquake Activity

City Distance Mag. Time & Date
Minimum magnitude displayed is 2.5.

Coastal Water Temperatures

Place Temperature

Stations

Nearby Weather Stations

Station Location Temp. Windchill Dew Point Humidity Wind Precip. Elev Updated Type
                   

Watches & Warnings

Dense Fog Advisory
Issued: 10:25 PM CST Feb. 27, 2017 – National Weather Service

... Dense fog advisory in effect until 9 am CST Tuesday...

The National Weather Service in Birmingham has issued a dense fog
advisory, which is in effect until 9 am CST Tuesday.

* Visibility... around one quarter of a mile or less at times

* impacts... poor visibility will result in hazardous travel
conditions.

Precautionary/preparedness actions...

A dense fog advisory means visibilities will frequently be
reduced to less than one quarter mile. If driving... slow down...
use your headlights... and leave plenty of distance ahead of you.